Time;durP1;ratioP1;P1;durP2;ratioP2;P2;SDS_P1;SDS_P2;PMS_P1;PMS_P2;Temp;Humidity;BMP_temperature;BMP_pressure;BME280_temperature;BME280_humidity;BME280_pressure;Samples;Min_cycle;Max_cycle;Signal;HPM_P1;HPM_P2
2022/02/03 00:00:53;;;;;;;;;;;9.10;99.90;;;;;;2104294;28;20259;-72
2022/02/03 00:04:14;;;;;;;;;;;9.20;99.90;;;;;;2105952;28;19908;-72
2022/02/03 00:05:21;;;;;;;;;;;9.20;99.90;;;;;;2100160;28;19991;-72
2022/02/03 00:06:32;;;;;;;;;;;9.20;99.90;;;;;;2099518;28;19960;-72
2022/02/03 00:07:47;;;;;;;;;;;9.20;99.90;;;;;;2106144;28;19912;-72
2022/02/03 00:16:05;;;;;;;;;;;9.20;99.90;;;;;;2103433;28;20018;-71
2022/02/03 00:17:04;;;;;;;;;;;9.30;99.90;;;;;;2103120;28;19912;-72
2022/02/03 00:22:35;;;;;;;;;;;9.30;99.90;;;;;;2100139;28;19917;-72
2022/02/03 00:25:17;;;;;;;;;;;9.30;99.90;;;;;;2103011;28;20191;-72
2022/02/03 00:26:19;;;;;;;;;;;9.30;99.90;;;;;;2111377;28;20002;-72
2022/02/03 00:27:35;;;;;;;;;;;9.30;99.90;;;;;;2108815;28;19916;-72
2022/02/03 00:28:41;;;;;;;;;;;9.30;99.90;;;;;;2105351;28;20057;-72
2022/02/03 00:29:58;;;;;;;;;;;9.30;99.90;;;;;;2100229;28;20007;-72
2022/02/03 00:31:12;;;;;;;;;;;9.30;99.90;;;;;;2101113;28;20375;-72
2022/02/03 00:33:59;;;;;;;;;;;9.30;99.90;;;;;;2104525;28;19912;-72
2022/02/03 00:35:32;;;;;;;;;;;9.30;99.90;;;;;;2102653;28;19916;-72
2022/02/03 00:36:39;;;;;;;;;;;9.40;99.90;;;;;;2102777;28;19915;-72
2022/02/03 00:38:02;;;;;;;;;;;9.40;99.90;;;;;;2109162;28;19908;-72
2022/02/03 00:48:21;;;;;;;;;;;9.40;99.90;;;;;;2105494;28;20271;-72
2022/02/03 00:49:22;;;;;;;;;;;9.40;99.90;;;;;;2101926;28;19919;-72
2022/02/03 00:50:27;;;;;;;;;;;9.40;99.90;;;;;;2099767;28;19933;-72
2022/02/03 00:51:28;;;;;;;;;;;9.40;99.90;;;;;;2102975;28;20234;-72
2022/02/03 00:52:32;;;;;;;;;;;9.40;99.90;;;;;;2100558;28;19958;-72
2022/02/03 00:53:33;;;;;;;;;;;9.50;99.90;;;;;;2104295;28;19909;-72
2022/02/03 00:54:34;;;;;;;;;;;9.50;99.90;;;;;;2103446;28;20383;-73
2022/02/03 00:55:36;;;;;;;;;;;9.50;99.90;;;;;;2094149;28;19920;-72
2022/02/03 00:56:38;;;;;;;;;;;9.50;99.90;;;;;;2091383;28;20044;-72
2022/02/03 00:57:48;;;;;;;;;;;9.50;99.90;;;;;;2103618;28;19908;-72
2022/02/03 00:58:51;;;;;;;;;;;9.50;99.90;;;;;;2100182;28;19909;-72
2022/02/03 01:00:07;;;;;;;;;;;9.50;99.90;;;;;;2102785;28;20430;-72
2022/02/03 01:01:10;;;;;;;;;;;9.50;99.90;;;;;;2105696;28;20019;-72
2022/02/03 01:02:14;;;;;;;;;;;9.50;99.90;;;;;;2099282;28;19913;-72
2022/02/03 01:03:15;;;;;;;;;;;9.50;99.90;;;;;;2093380;28;19923;-72
2022/02/03 01:04:16;;;;;;;;;;;9.50;99.90;;;;;;2096483;28;19955;-73
2022/02/03 01:05:17;;;;;;;;;;;9.50;99.90;;;;;;2101046;28;20287;-72
2022/02/03 01:06:20;;;;;;;;;;;9.50;99.90;;;;;;2103033;28;19963;-72
2022/02/03 01:07:21;;;;;;;;;;;9.50;99.90;;;;;;2102534;28;19920;-72
2022/02/03 01:08:24;;;;;;;;;;;9.50;99.90;;;;;;2102676;28;20369;-72
2022/02/03 01:09:26;;;;;;;;;;;9.50;99.90;;;;;;2104105;28;19916;-72
2022/02/03 01:10:31;;;;;;;;;;;9.50;99.90;;;;;;2103125;28;19966;-72
2022/02/03 01:11:37;;;;;;;;;;;9.50;99.90;;;;;;2101351;28;19915;-72
2022/02/03 01:12:59;;;;;;;;;;;9.50;99.90;;;;;;2103099;28;20390;-72
2022/02/03 01:21:09;;;;;;;;;;;9.50;99.90;;;;;;2102749;28;19908;-72
2022/02/03 01:44:00;;;;;;;;;;;9.60;99.90;;;;;;2098883;28;19913;-72
2022/02/03 01:45:07;;;;;;;;;;;9.60;99.90;;;;;;2095194;28;20003;-72
2022/02/03 01:46:14;;;;;;;;;;;9.60;99.90;;;;;;2093849;28;19924;-72
2022/02/03 01:47:31;;;;;;;;;;;9.60;99.90;;;;;;2103163;28;19927;-72
2022/02/03 01:52:32;;;;;;;;;;;9.60;99.90;;;;;;2102201;28;19912;-72
2022/02/03 01:53:33;;;;;;;;;;;9.60;99.90;;;;;;2099926;28;19930;-72
2022/02/03 01:54:34;;;;;;;;;;;9.60;99.90;;;;;;2103818;28;19908;-72
2022/02/03 01:55:35;;;;;;;;;;;9.70;99.90;;;;;;2100702;28;19913;-72
2022/02/03 01:56:41;;;;;;;;;;;9.60;99.90;;;;;;2102251;28;19970;-72
2022/02/03 01:57:47;;;;;;;;;;;9.70;99.90;;;;;;2102295;28;19912;-72
2022/02/03 01:58:47;;;;;;;;;;;9.70;99.90;;;;;;2099904;28;19995;-72
2022/02/03 01:59:54;;;;;;;;;;;9.60;99.90;;;;;;2105301;28;19920;-72
2022/02/03 02:00:56;;;;;;;;;;;9.70;99.90;;;;;;2102523;28;20395;-72
2022/02/03 02:02:01;;;;;;;;;;;9.70;99.90;;;;;;2107634;28;20689;-72
2022/02/03 02:03:05;;;;;;;;;;;9.70;99.90;;;;;;2110488;28;20010;-72
2022/02/03 02:04:31;;;;;;;;;;;9.70;99.90;;;;;;2100232;28;19997;-72
2022/02/03 02:06:01;;;;;;;;;;;9.70;99.90;;;;;;2101482;28;19912;-72
2022/02/03 02:07:20;;;;;;;;;;;9.70;99.90;;;;;;2099972;28;20251;-72
2022/02/03 02:08:39;;;;;;;;;;;9.70;99.90;;;;;;2105129;28;20486;-72
2022/02/03 02:10:00;;;;;;;;;;;9.70;99.90;;;;;;2098978;28;19909;-72
2022/02/03 02:11:27;;;;;;;;;;;9.70;99.90;;;;;;2102051;28;19912;-72
2022/02/03 02:12:34;;;;;;;;;;;9.70;99.90;;;;;;2105485;28;19920;-72
2022/02/03 02:16:28;;;;;;;;;;;9.80;99.90;;;;;;2099329;28;19958;-72
2022/02/03 02:18:10;;;;;;;;;;;9.80;99.90;;;;;;2113594;28;19912;-72
2022/02/03 02:19:20;;;;;;;;;;;9.70;99.90;;;;;;2103203;28;20419;-72
2022/02/03 02:39:30;;;;;;;;;;;9.80;99.90;;;;;;2102854;28;19920;-72
2022/02/03 02:42:49;;;;;;;;;;;9.80;99.90;;;;;;2104462;28;19912;-72
2022/02/03 02:44:03;;;;;;;;;;;9.80;99.90;;;;;;2104176;28;19981;-72
2022/02/03 02:45:11;;;;;;;;;;;9.80;99.90;;;;;;2102236;28;19953;-72
2022/02/03 02:46:16;;;;;;;;;;;9.80;99.90;;;;;;2102112;28;20272;-72
2022/02/03 02:47:30;;;;;;;;;;;9.80;99.90;;;;;;2104195;28;19916;-72
2022/02/03 02:48:49;;;;;;;;;;;9.80;99.90;;;;;;2103812;28;19909;-72
2022/02/03 02:49:58;;;;;;;;;;;9.80;99.90;;;;;;2104616;28;20007;-72
2022/02/03 02:51:08;;;;;;;;;;;9.80;99.90;;;;;;2102181;28;19908;-72
2022/02/03 02:52:12;;;;;;;;;;;9.80;99.90;;;;;;2108826;28;19907;-72
2022/02/03 02:53:41;;;;;;;;;;;9.80;99.90;;;;;;2113161;28;20275;-72
2022/02/03 02:54:55;;;;;;;;;;;9.80;99.90;;;;;;2111752;28;19916;-72
2022/02/03 02:56:24;;;;;;;;;;;9.80;99.90;;;;;;2105613;28;19912;-72
2022/02/03 02:59:16;;;;;;;;;;;9.80;99.90;;;;;;2100036;28;19912;-72
2022/02/03 03:01:02;;;;;;;;;;;9.80;99.90;;;;;;2100436;28;19912;-72
2022/02/03 03:03:53;;;;;;;;;;;9.80;99.90;;;;;;2099050;28;20375;-72
2022/02/03 03:31:24;;;;;;;;;;;9.80;99.90;;;;;;2099867;28;20501;-72
2022/02/03 03:32:46;;;;;;;;;;;9.80;99.90;;;;;;2103682;28;20373;-72
2022/02/03 03:33:59;;;;;;;;;;;9.80;99.90;;;;;;2105686;28;19957;-72
2022/02/03 03:36:22;;;;;;;;;;;9.80;99.90;;;;;;2102076;28;19913;-72
2022/02/03 03:37:55;;;;;;;;;;;9.80;99.90;;;;;;2104704;28;19915;-72
2022/02/03 03:38:50;;;;;;;;;;;9.80;99.90;;;;;;2101426;28;19912;-72
2022/02/03 03:39:52;;;;;;;;;;;9.80;99.90;;;;;;2104499;28;19908;-72
2022/02/03 03:40:55;;;;;;;;;;;9.80;99.90;;;;;;2104387;28;20361;-72
2022/02/03 03:41:59;;;;;;;;;;;9.80;99.90;;;;;;2093607;28;20277;-72
2022/02/03 03:43:02;;;;;;;;;;;9.90;99.90;;;;;;2098090;28;19955;-72
2022/02/03 03:44:05;;;;;;;;;;;9.90;99.90;;;;;;2105244;28;19919;-72
2022/02/03 03:45:07;;;;;;;;;;;9.80;99.90;;;;;;2108518;28;19948;-72
2022/02/03 03:46:10;;;;;;;;;;;9.80;99.90;;;;;;2106909;28;19959;-72
2022/02/03 03:47:13;;;;;;;;;;;9.80;99.90;;;;;;2103318;28;19916;-72
2022/02/03 03:48:18;;;;;;;;;;;9.80;99.90;;;;;;2106773;28;19961;-72
2022/02/03 03:49:21;;;;;;;;;;;9.80;99.90;;;;;;2100880;28;19915;-72
2022/02/03 03:50:24;;;;;;;;;;;9.80;99.90;;;;;;2101339;28;19908;-72
2022/02/03 03:51:28;;;;;;;;;;;9.80;99.90;;;;;;2106245;28;20268;-73
2022/02/03 03:52:29;;;;;;;;;;;9.80;99.90;;;;;;2116765;27;19908;-72
2022/02/03 03:53:41;;;;;;;;;;;9.80;99.90;;;;;;2112302;28;19917;-72
2022/02/03 03:54:53;;;;;;;;;;;9.80;99.90;;;;;;2107562;28;19914;-72
2022/02/03 03:56:03;;;;;;;;;;;9.80;99.90;;;;;;2104799;28;19927;-72
2022/02/03 03:57:38;;;;;;;;;;;9.80;99.90;;;;;;2096428;28;19999;-72
2022/02/03 04:00:19;;;;;;;;;;;9.80;99.90;;;;;;2103559;28;19918;-72
2022/02/03 04:29:45;;;;;;;;;;;9.80;99.90;;;;;;2102860;28;19909;-72
2022/02/03 04:32:27;;;;;;;;;;;9.80;99.90;;;;;;2101889;28;19963;-72
2022/02/03 04:35:30;;;;;;;;;;;9.80;99.90;;;;;;2107590;28;19912;-72
2022/02/03 04:36:54;;;;;;;;;;;9.80;99.90;;;;;;2103076;28;19913;-72
2022/02/03 04:40:15;;;;;;;;;;;9.80;99.90;;;;;;2105503;28;20007;-72
2022/02/03 04:52:38;;;;;;;;;;;9.80;99.90;;;;;;2102934;28;19912;-72
2022/02/03 05:00:52;;;;;;;;;;;9.80;99.90;;;;;;2105860;28;19922;-72
2022/02/03 05:02:26;;;;;;;;;;;9.70;99.90;;;;;;2102566;28;19913;-72
2022/02/03 05:04:05;;;;;;;;;;;9.70;99.90;;;;;;2101435;28;19908;-72
2022/02/03 05:05:10;;;;;;;;;;;9.70;99.90;;;;;;2100255;28;19987;-72
2022/02/03 05:06:36;;;;;;;;;;;9.70;99.90;;;;;;2106013;28;19957;-72
2022/02/03 05:07:53;;;;;;;;;;;9.70;99.90;;;;;;2104280;28;19912;-72
2022/02/03 05:09:48;;;;;;;;;;;9.70;99.90;;;;;;2102861;28;19916;-72
2022/02/03 05:11:25;;;;;;;;;;;9.70;99.90;;;;;;2104717;28;19944;-72
2022/02/03 05:19:53;;;;;;;;;;;9.70;99.90;;;;;;2102912;28;20002;-72
2022/02/03 05:21:14;;;;;;;;;;;9.60;99.90;;;;;;2099000;28;20333;-72
2022/02/03 05:24:36;;;;;;;;;;;9.60;99.90;;;;;;2100504;28;19924;-72
2022/02/03 05:34:55;;;;;;;;;;;9.60;99.90;;;;;;2106195;28;19943;-72
2022/02/03 05:43:03;;;;;;;;;;;9.60;99.90;;;;;;2103549;28;19908;-72
2022/02/03 05:45:59;;;;;;;;;;;9.60;99.90;;;;;;2102436;28;19992;-72
2022/02/03 05:52:02;;;;;;;;;;;9.60;99.90;;;;;;2102662;28;19969;-72
2022/02/03 06:04:58;;;;;;;;;;;9.50;99.90;;;;;;2097719;28;19908;-72
2022/02/03 06:08:50;;;;;;;;;;;9.50;99.90;;;;;;2102575;28;20002;-72
2022/02/03 06:13:52;;;;;;;;;;;9.40;99.90;;;;;;2104152;28;19923;-72
2022/02/03 06:14:59;;;;;;;;;;;9.50;99.90;;;;;;2100839;28;19909;-72
2022/02/03 06:17:29;;;;;;;;;;;9.50;99.90;;;;;;2102481;28;19923;-72
2022/02/03 06:22:26;;;;;;;;;;;9.50;99.90;;;;;;2101803;28;19912;-72
2022/02/03 06:23:40;;;;;;;;;;;9.40;99.90;;;;;;2100912;28;19912;-72
2022/02/03 06:27:46;;;;;;;;;;;9.40;99.90;;;;;;2100393;28;19912;-72
2022/02/03 06:28:48;;;;;;;;;;;9.40;99.90;;;;;;2101785;28;20249;-72
2022/02/03 06:29:52;;;;;;;;;;;9.40;99.90;;;;;;2099832;28;19916;-72
2022/02/03 06:30:53;;;;;;;;;;;9.40;99.90;;;;;;2110268;28;20477;-72
2022/02/03 06:31:53;;;;;;;;;;;9.40;99.90;;;;;;2108420;28;20378;-72
2022/02/03 06:32:54;;;;;;;;;;;9.40;99.90;;;;;;2100592;28;19916;-71
2022/02/03 06:33:55;;;;;;;;;;;9.40;99.90;;;;;;2101711;28;19919;-72
2022/02/03 06:34:56;;;;;;;;;;;9.40;99.90;;;;;;2100882;28;19957;-72
2022/02/03 06:35:56;;;;;;;;;;;9.40;99.90;;;;;;2101992;28;19999;-72
2022/02/03 06:36:57;;;;;;;;;;;9.40;99.90;;;;;;2103616;28;19920;-72
2022/02/03 06:37:57;;;;;;;;;;;9.40;99.90;;;;;;2100765;28;19908;-72
2022/02/03 06:38:57;;;;;;;;;;;9.40;99.90;;;;;;2104086;28;19923;-72
2022/02/03 06:39:58;;;;;;;;;;;9.40;99.90;;;;;;2104983;28;19916;-72
2022/02/03 06:40:58;;;;;;;;;;;9.40;99.90;;;;;;2111472;28;19920;-72
2022/02/03 06:42:00;;;;;;;;;;;9.40;99.90;;;;;;2110984;28;19954;-72
2022/02/03 06:43:01;;;;;;;;;;;9.40;99.90;;;;;;2103356;28;19917;-72
2022/02/03 06:44:01;;;;;;;;;;;9.40;99.90;;;;;;2104550;28;19965;-72
2022/02/03 06:45:14;;;;;;;;;;;9.40;99.90;;;;;;2103024;28;19931;-72
2022/02/03 06:46:15;;;;;;;;;;;9.40;99.90;;;;;;2100773;28;19916;-72
2022/02/03 06:48:19;;;;;;;;;;;9.40;99.90;;;;;;2103838;28;19969;-72
2022/02/03 06:49:31;;;;;;;;;;;9.40;99.90;;;;;;2100708;28;20483;-72
2022/02/03 06:50:39;;;;;;;;;;;9.40;99.90;;;;;;2101441;28;20438;-72
2022/02/03 06:51:48;;;;;;;;;;;9.40;99.90;;;;;;2103010;28;19908;-72
2022/02/03 06:54:04;;;;;;;;;;;9.30;99.90;;;;;;2102348;28;19955;-72
2022/02/03 06:55:10;;;;;;;;;;;9.30;99.90;;;;;;2102302;28;20357;-72
2022/02/03 06:56:26;;;;;;;;;;;9.30;99.90;;;;;;2103102;28;19972;-72
2022/02/03 06:57:38;;;;;;;;;;;9.30;99.90;;;;;;2101778;28;20003;-72
2022/02/03 06:58:52;;;;;;;;;;;9.30;99.90;;;;;;2102358;28;19923;-72
2022/02/03 07:00:00;;;;;;;;;;;9.30;99.90;;;;;;2093787;28;19935;-72
2022/02/03 07:01:10;;;;;;;;;;;9.30;99.90;;;;;;2095031;28;19959;-72
2022/02/03 07:02:11;;;;;;;;;;;9.30;99.90;;;;;;2100722;28;20349;-72
2022/02/03 07:03:17;;;;;;;;;;;9.30;99.90;;;;;;2101803;28;19958;-72
2022/02/03 07:04:25;;;;;;;;;;;9.30;99.90;;;;;;2103524;28;19955;-72
2022/02/03 07:05:26;;;;;;;;;;;9.30;99.90;;;;;;2101614;28;19919;-72
2022/02/03 07:06:28;;;;;;;;;;;9.30;99.90;;;;;;2104866;28;20371;-72
2022/02/03 07:07:29;;;;;;;;;;;9.20;99.90;;;;;;2103113;28;19915;-72
2022/02/03 07:08:31;;;;;;;;;;;9.30;99.90;;;;;;2112126;28;19915;-72
2022/02/03 07:09:32;;;;;;;;;;;9.30;99.90;;;;;;2110711;28;19947;-72
2022/02/03 07:10:32;;;;;;;;;;;9.30;99.90;;;;;;2097309;28;19920;-72
2022/02/03 07:11:34;;;;;;;;;;;9.30;99.90;;;;;;2097817;28;19916;-72
2022/02/03 07:12:35;;;;;;;;;;;9.30;99.90;;;;;;2104174;28;20015;-72
2022/02/03 07:13:36;;;;;;;;;;;9.30;99.90;;;;;;2103334;28;19999;-72
2022/02/03 07:14:37;;;;;;;;;;;9.30;99.90;;;;;;2105538;28;19946;-72
2022/02/03 07:15:37;;;;;;;;;;;9.30;99.90;;;;;;2104809;28;19935;-72
2022/02/03 07:16:49;;;;;;;;;;;9.30;99.90;;;;;;2104791;28;20026;-72
2022/02/03 07:17:49;;;;;;;;;;;9.30;99.90;;;;;;2104250;28;19908;-72
2022/02/03 07:18:50;;;;;;;;;;;9.30;99.90;;;;;;2103204;28;19954;-72
2022/02/03 07:19:54;;;;;;;;;;;9.30;99.90;;;;;;2104015;28;19968;-72
2022/02/03 07:20:54;;;;;;;;;;;9.30;99.90;;;;;;2102598;28;20325;-72
2022/02/03 07:21:55;;;;;;;;;;;9.30;99.90;;;;;;2103692;28;19908;-72
2022/02/03 07:22:55;;;;;;;;;;;9.30;99.90;;;;;;2102049;28;20343;-72
2022/02/03 07:23:56;;;;;;;;;;;9.20;99.90;;;;;;2100936;28;20409;-72
2022/02/03 07:24:56;;;;;;;;;;;9.30;99.90;;;;;;2104398;28;19909;-72
2022/02/03 07:25:57;;;;;;;;;;;9.30;99.90;;;;;;2104953;28;19912;-72
2022/02/03 07:26:57;;;;;;;;;;;9.30;99.90;;;;;;2106878;28;19960;-72
2022/02/03 07:28:01;;;;;;;;;;;9.30;99.90;;;;;;2103309;28;19912;-72
2022/02/03 07:29:01;;;;;;;;;;;9.30;99.90;;;;;;2104527;28;19908;-72
2022/02/03 07:30:02;;;;;;;;;;;9.30;99.90;;;;;;2103511;28;19908;-72
2022/02/03 07:31:02;;;;;;;;;;;9.30;99.90;;;;;;2110908;28;19908;-72
2022/02/03 07:32:04;;;;;;;;;;;9.30;99.90;;;;;;2110870;27;19912;-72
2022/02/03 07:33:06;;;;;;;;;;;9.30;99.90;;;;;;2107145;28;19912;-72
2022/02/03 07:34:12;;;;;;;;;;;9.30;99.90;;;;;;2104552;28;19985;-72
2022/02/03 07:35:13;;;;;;;;;;;9.30;99.90;;;;;;2100579;28;19956;-72
2022/02/03 07:36:13;;;;;;;;;;;9.30;99.90;;;;;;2107116;28;20445;-72
2022/02/03 07:37:14;;;;;;;;;;;9.30;99.90;;;;;;2105344;28;19916;-72
2022/02/03 07:38:17;;;;;;;;;;;9.30;99.90;;;;;;2103236;28;19963;-72
2022/02/03 07:39:18;;;;;;;;;;;9.40;99.90;;;;;;2103296;28;20267;-72
2022/02/03 07:40:19;;;;;;;;;;;9.30;99.90;;;;;;2109731;28;19939;-72
2022/02/03 07:41:19;;;;;;;;;;;9.40;99.90;;;;;;2111247;28;19912;-72
2022/02/03 07:42:20;;;;;;;;;;;9.40;99.90;;;;;;2103298;28;19908;-72
2022/02/03 07:43:21;;;;;;;;;;;9.40;99.90;;;;;;2099943;28;19939;-72
2022/02/03 07:44:22;;;;;;;;;;;9.40;99.90;;;;;;2106107;28;19912;-72
2022/02/03 07:45:23;;;;;;;;;;;9.40;99.90;;;;;;2100602;28;19919;-72
2022/02/03 07:46:23;;;;;;;;;;;9.40;99.90;;;;;;2092735;28;19909;-72
2022/02/03 07:47:23;;;;;;;;;;;9.40;99.90;;;;;;2097291;28;19921;-72
2022/02/03 07:48:24;;;;;;;;;;;9.40;99.90;;;;;;2100771;28;20003;-72
2022/02/03 07:49:25;;;;;;;;;;;9.40;99.90;;;;;;2105610;28;19919;-72
2022/02/03 07:50:25;;;;;;;;;;;9.40;99.90;;;;;;2103348;28;20482;-73
2022/02/03 07:51:26;;;;;;;;;;;9.40;99.90;;;;;;2103178;28;19930;-73
2022/02/03 07:52:26;;;;;;;;;;;9.40;99.90;;;;;;2106896;28;19915;-73
2022/02/03 07:53:27;;;;;;;;;;;9.40;99.90;;;;;;2101760;28;20360;-72
2022/02/03 07:54:29;;;;;;;;;;;9.40;99.90;;;;;;2101037;28;19913;-72
2022/02/03 07:55:29;;;;;;;;;;;9.50;99.90;;;;;;2105348;28;19946;-72
2022/02/03 07:56:30;;;;;;;;;;;9.50;99.90;;;;;;2099742;28;19915;-72
2022/02/03 07:57:30;;;;;;;;;;;9.50;99.90;;;;;;2107410;28;19919;-72
2022/02/03 07:58:31;;;;;;;;;;;9.40;99.90;;;;;;2103735;28;19915;-72
2022/02/03 07:59:31;;;;;;;;;;;9.50;99.90;;;;;;2101999;28;19908;-72
2022/02/03 08:00:32;;;;;;;;;;;9.50;99.90;;;;;;2112231;28;20349;-72
2022/02/03 08:01:34;;;;;;;;;;;9.40;99.90;;;;;;2111676;28;19911;-72
2022/02/03 08:02:36;;;;;;;;;;;9.40;99.90;;;;;;2103462;28;19909;-73
2022/02/03 08:03:42;;;;;;;;;;;9.40;99.90;;;;;;2103381;28;19915;-73
2022/02/03 08:04:46;;;;;;;;;;;9.40;99.90;;;;;;2101189;28;19908;-73
2022/02/03 08:05:54;;;;;;;;;;;9.40;99.90;;;;;;2104360;28;20217;-72
2022/02/03 08:06:54;;;;;;;;;;;9.40;99.90;;;;;;2103686;28;19908;-72
2022/02/03 08:09:25;;;;;;;;;;;9.40;99.90;;;;;;2100632;28;19913;-72
2022/02/03 08:11:40;;;;;;;;;;;9.40;99.90;;;;;;2100552;28;19982;-73
2022/02/03 08:12:41;;;;;;;;;;;9.40;99.90;;;;;;2104033;28;19919;-73
2022/02/03 08:13:51;;;;;;;;;;;9.40;99.90;;;;;;2103075;28;19919;-73
2022/02/03 08:14:52;;;;;;;;;;;9.40;99.90;;;;;;2099014;28;20365;-72
2022/02/03 08:16:01;;;;;;;;;;;9.50;99.90;;;;;;2104739;28;19908;-72
2022/02/03 08:17:06;;;;;;;;;;;9.40;99.90;;;;;;2102426;28;20019;-72
2022/02/03 08:18:11;;;;;;;;;;;9.40;99.90;;;;;;2100090;28;19916;-72
2022/02/03 08:20:21;;;;;;;;;;;9.40;99.90;;;;;;2102567;28;19969;-72
2022/02/03 08:21:23;;;;;;;;;;;9.40;99.90;;;;;;2099994;28;20348;-72
2022/02/03 08:22:28;;;;;;;;;;;9.40;99.90;;;;;;2106335;28;19948;-73
2022/02/03 08:24:51;;;;;;;;;;;9.40;99.90;;;;;;2100826;28;20363;-73
2022/02/03 08:26:03;;;;;;;;;;;9.40;99.90;;;;;;2102799;28;19914;-73
2022/02/03 08:27:21;;;;;;;;;;;9.40;99.90;;;;;;2109937;28;19969;-73
2022/02/03 08:31:02;;;;;;;;;;;9.40;99.90;;;;;;2101497;28;19909;-72
2022/02/03 08:33:04;;;;;;;;;;;9.40;99.90;;;;;;2106291;28;20260;-73
2022/02/03 08:34:05;;;;;;;;;;;9.40;99.90;;;;;;2105388;28;19919;-73
2022/02/03 08:36:09;;;;;;;;;;;9.40;99.90;;;;;;2099881;28;19908;-72
2022/02/03 08:37:09;;;;;;;;;;;9.40;99.90;;;;;;2105799;28;20007;-73
2022/02/03 08:39:11;;;;;;;;;;;9.40;99.90;;;;;;2100234;28;19916;-73
2022/02/03 08:40:20;;;;;;;;;;;9.40;99.90;;;;;;2105636;28;19943;-73
2022/02/03 08:41:21;;;;;;;;;;;9.40;99.90;;;;;;2110704;28;19934;-73
2022/02/03 08:42:22;;;;;;;;;;;9.30;99.90;;;;;;2107791;28;19963;-73
2022/02/03 08:43:24;;;;;;;;;;;9.40;99.90;;;;;;2105206;28;19915;-73
2022/02/03 08:44:24;;;;;;;;;;;9.40;99.90;;;;;;2099788;28;19912;-72
2022/02/03 08:45:25;;;;;;;;;;;9.40;99.90;;;;;;2102731;28;19954;-72
2022/02/03 08:46:26;;;;;;;;;;;9.40;99.90;;;;;;2103450;28;20347;-72
2022/02/03 08:47:27;;;;;;;;;;;9.40;99.90;;;;;;2105344;28;20288;-73
2022/02/03 08:48:27;;;;;;;;;;;9.40;99.90;;;;;;2103313;28;19940;-73
2022/02/03 08:49:28;;;;;;;;;;;9.40;99.90;;;;;;2101633;28;19912;-73
2022/02/03 08:50:29;;;;;;;;;;;9.40;99.90;;;;;;2100070;28;19908;-73
2022/02/03 08:51:30;;;;;;;;;;;9.40;99.90;;;;;;2105122;28;19909;-72
2022/02/03 08:53:17;;;;;;;;;;;9.40;99.90;;;;;;2106321;28;19923;-73
2022/02/03 08:53:57;;;;;;;;;;;9.40;99.90;;;;;;2102238;28;19912;-72
2022/02/03 08:55:19;;;;;;;;;;;9.40;99.90;;;;;;2102751;28;19908;-72
2022/02/03 08:56:30;;;;;;;;;;;9.40;99.90;;;;;;2102703;28;19908;-72
2022/02/03 08:57:43;;;;;;;;;;;9.40;99.90;;;;;;2102737;28;20245;-72
2022/02/03 09:32:24;;;;;;;;;;;9.30;99.90;;;;;;2103842;28;19909;-72
2022/02/03 09:33:31;;;;;;;;;;;9.30;99.90;;;;;;2101475;28;19912;-73
2022/02/03 09:34:53;;;;;;;;;;;9.30;99.90;;;;;;2104230;28;20356;-72
2022/02/03 09:37:31;;;;;;;;;;;9.30;99.90;;;;;;2101357;28;20336;-72
2022/02/03 09:51:52;;;;;;;;;;;9.30;99.90;;;;;;2102840;28;19936;-72
2022/02/03 09:58:10;;;;;;;;;;;9.30;99.90;;;;;;2102929;28;19920;-73
2022/02/03 09:59:14;;;;;;;;;;;9.30;99.90;;;;;;2102129;28;19915;-73
2022/02/03 10:00:53;;;;;;;;;;;9.20;99.90;;;;;;2101930;28;19916;-73
2022/02/03 10:02:06;;;;;;;;;;;9.20;99.90;;;;;;2089034;28;19909;-72
2022/02/03 10:03:12;;;;;;;;;;;9.20;99.90;;;;;;2095025;28;19970;-72
2022/02/03 10:04:17;;;;;;;;;;;9.30;99.90;;;;;;2103183;28;19908;-72
2022/02/03 10:06:41;;;;;;;;;;;9.30;99.90;;;;;;2099047;28;19916;-72
2022/02/03 10:07:50;;;;;;;;;;;9.30;99.90;;;;;;2105403;28;19920;-73
2022/02/03 10:08:53;;;;;;;;;;;9.30;99.90;;;;;;2102981;28;19909;-73
2022/02/03 10:09:55;;;;;;;;;;;9.30;99.90;;;;;;2105316;28;19919;-72
2022/02/03 10:11:11;;;;;;;;;;;9.30;99.90;;;;;;2102920;28;19908;-72
2022/02/03 10:12:12;;;;;;;;;;;9.30;99.90;;;;;;2104630;28;19915;-72
2022/02/03 10:13:15;;;;;;;;;;;9.30;99.90;;;;;;2107364;28;19957;-72
2022/02/03 10:14:16;;;;;;;;;;;9.30;99.90;;;;;;2113582;28;20315;-72
2022/02/03 10:15:19;;;;;;;;;;;9.30;99.90;;;;;;2098619;28;19913;-72
2022/02/03 10:16:26;;;;;;;;;;;9.30;99.90;;;;;;2091245;28;21470;-72
2022/02/03 10:17:33;;;;;;;;;;;9.30;99.90;;;;;;2094521;28;19952;-73
2022/02/03 10:18:33;;;;;;;;;;;9.30;99.90;;;;;;2102434;28;20253;-72
2022/02/03 10:19:40;;;;;;;;;;;9.30;99.90;;;;;;2091753;28;20019;-72
2022/02/03 10:20:46;;;;;;;;;;;9.30;99.90;;;;;;2093408;28;19909;-72
2022/02/03 10:21:48;;;;;;;;;;;9.30;99.90;;;;;;2102187;28;20011;-72
2022/02/03 10:22:50;;;;;;;;;;;9.30;99.90;;;;;;2098823;28;20032;-72
2022/02/03 10:23:55;;;;;;;;;;;9.30;99.90;;;;;;2105068;28;19912;-72
2022/02/03 10:25:10;;;;;;;;;;;9.30;99.90;;;;;;2104546;28;19912;-72
2022/02/03 10:26:11;;;;;;;;;;;9.30;99.90;;;;;;2102175;28;20312;-72
2022/02/03 10:27:22;;;;;;;;;;;9.30;99.90;;;;;;2102147;28;19977;-72
2022/02/03 10:28:26;;;;;;;;;;;9.30;99.90;;;;;;2105626;28;19912;-72
2022/02/03 10:29:32;;;;;;;;;;;9.30;99.90;;;;;;2108177;28;19915;-72
2022/02/03 10:30:40;;;;;;;;;;;9.30;99.90;;;;;;2101898;28;19912;-72
2022/02/03 10:31:43;;;;;;;;;;;9.30;99.90;;;;;;2103607;28;20407;-72
2022/02/03 10:32:43;;;;;;;;;;;9.30;99.90;;;;;;2102603;28;19915;-72
2022/02/03 10:33:47;;;;;;;;;;;9.30;99.90;;;;;;2092459;28;20046;-72
2022/02/03 10:34:47;;;;;;;;;;;9.40;99.90;;;;;;2092945;28;20265;-72
2022/02/03 10:35:56;;;;;;;;;;;9.40;99.90;;;;;;2103415;28;19908;-72
2022/02/03 10:46:12;;;;;;;;;;;9.40;99.90;;;;;;2102013;28;19912;-72
2022/02/03 10:49:07;;;;;;;;;;;9.40;99.90;;;;;;2103000;28;19919;-72
2022/02/03 10:50:26;;;;;;;;;;;9.40;99.90;;;;;;2101305;28;20287;-72
2022/02/03 10:54:12;;;;;;;;;;;9.40;99.90;;;;;;2102325;28;19912;-72
2022/02/03 10:56:05;;;;;;;;;;;9.40;99.90;;;;;;2101716;28;20678;-72
2022/02/03 10:57:19;;;;;;;;;;;9.30;99.90;;;;;;2097596;28;19912;-72
2022/02/03 11:02:00;;;;;;;;;;;9.30;99.90;;;;;;2101075;28;19912;-72
2022/02/03 11:10:00;;;;;;;;;;;9.30;99.90;;;;;;2101967;28;19912;-72
2022/02/03 11:11:02;;;;;;;;;;;9.30;99.90;;;;;;2102214;28;19915;-72
2022/02/03 11:12:05;;;;;;;;;;;9.30;99.90;;;;;;2103022;28;19960;-72
2022/02/03 11:13:06;;;;;;;;;;;9.30;99.90;;;;;;2109251;28;19908;-72
2022/02/03 11:14:08;;;;;;;;;;;9.30;99.90;;;;;;2109373;28;20347;-72
2022/02/03 11:15:10;;;;;;;;;;;9.30;99.90;;;;;;2100123;28;20373;-72
2022/02/03 11:16:11;;;;;;;;;;;9.30;99.90;;;;;;2094122;28;19912;-72
2022/02/03 11:17:11;;;;;;;;;;;9.30;99.90;;;;;;2092283;28;19912;-72
2022/02/03 11:18:14;;;;;;;;;;;9.40;99.90;;;;;;2104167;28;19908;-72
2022/02/03 11:19:18;;;;;;;;;;;9.30;99.90;;;;;;2101937;28;20416;-72
2022/02/03 11:20:20;;;;;;;;;;;9.30;99.90;;;;;;2099813;28;19912;-72
2022/02/03 11:21:20;;;;;;;;;;;9.30;99.90;;;;;;2099965;28;19908;-72
2022/02/03 11:22:31;;;;;;;;;;;9.30;99.90;;;;;;2101794;28;19961;-72
2022/02/03 11:23:38;;;;;;;;;;;9.30;99.90;;;;;;2102110;28;19908;-72
2022/02/03 11:24:43;;;;;;;;;;;9.30;99.90;;;;;;2100677;28;19915;-72
2022/02/03 11:29:18;;;;;;;;;;;9.30;99.90;;;;;;2102750;28;20023;-72
2022/02/03 11:33:01;;;;;;;;;;;9.30;99.90;;;;;;2101902;28;19955;-72
2022/02/03 11:36:35;;;;;;;;;;;9.30;99.90;;;;;;2102842;28;20400;-72
2022/02/03 11:40:26;;;;;;;;;;;9.30;99.90;;;;;;2108223;28;19968;-72
2022/02/03 11:57:38;;;;;;;;;;;9.20;99.90;;;;;;2101581;28;20003;-72
2022/02/03 12:01:32;;;;;;;;;;;9.20;99.90;;;;;;2101466;28;20353;-72
2022/02/03 12:02:53;;;;;;;;;;;9.20;99.90;;;;;;2102883;28;19908;-72
2022/02/03 12:05:17;;;;;;;;;;;9.20;99.90;;;;;;2101597;28;19916;-72
2022/02/03 12:10:20;;;;;;;;;;;9.20;99.90;;;;;;2099799;28;19958;-72
2022/02/03 12:14:58;;;;;;;;;;;9.10;99.90;;;;;;2105863;28;19962;-72
2022/02/03 12:17:48;;;;;;;;;;;9.20;99.90;;;;;;2104539;28;19931;-71
2022/02/03 12:18:55;;;;;;;;;;;9.20;99.90;;;;;;2102665;28;19913;-72
2022/02/03 12:20:00;;;;;;;;;;;9.20;99.90;;;;;;2101492;28;20345;-72
2022/02/03 12:21:08;;;;;;;;;;;9.20;99.90;;;;;;2117848;27;19908;-72
2022/02/03 12:23:39;;;;;;;;;;;9.10;99.90;;;;;;2106873;28;20497;-72
2022/02/03 12:24:53;;;;;;;;;;;9.10;99.90;;;;;;2103974;28;20497;-72
2022/02/03 12:26:04;;;;;;;;;;;9.10;99.90;;;;;;2102174;28;19947;-72
2022/02/03 12:27:27;;;;;;;;;;;9.10;99.90;;;;;;2101842;28;20029;-72
2022/02/03 12:29:14;;;;;;;;;;;9.10;99.90;;;;;;2109778;28;19912;-71
2022/02/03 12:30:05;;;;;;;;;;;9.10;99.90;;;;;;2099005;28;19977;-72
2022/02/03 12:32:20;;;;;;;;;;;9.00;99.90;;;;;;2111655;27;19938;-72
2022/02/03 12:38:33;;;;;;;;;;;8.90;99.90;;;;;;2102627;28;19916;-72
2022/02/03 12:39:43;;;;;;;;;;;9.00;99.90;;;;;;2104235;28;19912;-71
2022/02/03 12:40:53;;;;;;;;;;;9.00;99.90;;;;;;2102437;28;19913;-72
2022/02/03 12:42:08;;;;;;;;;;;9.00;99.90;;;;;;2101046;28;19909;-72
2022/02/03 12:44:26;;;;;;;;;;;9.00;99.90;;;;;;2101988;28;20420;-71
2022/02/03 12:45:27;;;;;;;;;;;9.00;99.90;;;;;;2099253;28;19912;-72